KRWF/RWF METAR and TAF weather

Enter ICAO airport designator
Station Type Date Time Source
KRWF METAR 2020/04/02 00:53 UTC NOAA

KRWF 020053Z AUTO 09012G21KT 10SM OVC095 10/06 A2988 RMK AO2 SLP124 T01000056


Station Type Date Time Source
KRWF Decoded METAR 2020/04/02 00:53 UTC NOAA

REDWOOD FALLS MUNICIPAL, MN, United States (KRWF) 44-33N 95-05W 311M
Apr 01, 2020 - 08:53 PM EDT / 2020.04.02 0053 UTC
Wind: from the E (090 degrees) at 14 MPH (12 KT) gusting to 24 MPH (21 KT):0
Visibility: 10 mile(s):0
Sky conditions: overcast
Temperature: 50.0 F (10.0 C)
Dew Point: 42.1 F (5.6 C)
Relative Humidity: 74%
Pressure (altimeter): 29.88 in. Hg (1011 hPa)
ob: KRWF 020053Z AUTO 09012G21KT 10SM OVC095 10/06 A2988 RMK AO2 SLP124 T01000056
cycle: 1

Station Type Date Time Source
KRWF TAF 2020/04/01 22:18 UTC NOAA

TAF
AMD KRWF 012216Z 0122/0218 11013G22KT P6SM BKN030
FM020000 13014G22KT P6SM SCT050 BKN100
FM021200 15011KT P6SM OVC018
FM021400 15009KT 2SM -RA OVC008

Example: see airport list